Avon, Indiana
Current Conditions -  °F | °C
As of 2:53 PM on Thursday 30 Oct 2014 (Local Time) from KEYE Reporting Station
Clear Clear  
Wind Chill: 52°   Ceiling: Unl
Heat Index: 52°   Visibility: 10mi
Dew Point: 33°   Wind: 7mph
Humidity: 49%   Direction: 200°SSW
Pressure: 30.09"   Gusts: NA
Location:  39.76°N, 86.4°W
Report Text: KEYE 301853Z AUTO 20006KT 10SM CLR 11/01 A3009 RMK AO2 SLP191 T01110006
Loading
Personal Weather Stations






























Interactive Weather Map
Tropical Storm Tracking
New forecast layout! Learn more

10-Day Weather Forecast

Advertisements
Track Severe Weather on mobile